sensor_id;sensor_type;location;lat;lon;timestamp;P1;durP1;ratioP1;P2;durP2;ratioP2
14247;SDS011;7208;49.826;6.004;2023-04-29T00:01:29;5.70;;;5.13;;
14247;SDS011;7208;49.826;6.004;2023-04-29T00:03:55;5.70;;;5.10;;
14247;SDS011;7208;49.826;6.004;2023-04-29T00:06:22;5.17;;;4.40;;
14247;SDS011;7208;49.826;6.004;2023-04-29T00:08:48;4.97;;;4.50;;
14247;SDS011;7208;49.826;6.004;2023-04-29T00:11:16;5.60;;;4.80;;
14247;SDS011;7208;49.826;6.004;2023-04-29T00:13:42;5.30;;;4.87;;
14247;SDS011;7208;49.826;6.004;2023-04-29T00:16:08;5.70;;;5.20;;
14247;SDS011;7208;49.826;6.004;2023-04-29T00:18:34;5.17;;;4.70;;
14247;SDS011;7208;49.826;6.004;2023-04-29T00:21:01;6.93;;;5.43;;
14247;SDS011;7208;49.826;6.004;2023-04-29T00:23:30;5.93;;;5.37;;
14247;SDS011;7208;49.826;6.004;2023-04-29T00:25:56;5.20;;;4.80;;
14247;SDS011;7208;49.826;6.004;2023-04-29T00:28:22;7.23;;;5.33;;
14247;SDS011;7208;49.826;6.004;2023-04-29T00:30:48;6.77;;;6.13;;
14247;SDS011;7208;49.826;6.004;2023-04-29T00:33:14;6.60;;;5.40;;
14247;SDS011;7208;49.826;6.004;2023-04-29T00:35:40;9.57;;;5.93;;
14247;SDS011;7208;49.826;6.004;2023-04-29T00:38:06;5.83;;;5.33;;
14247;SDS011;7208;49.826;6.004;2023-04-29T00:40:32;6.40;;;5.50;;
14247;SDS011;7208;49.826;6.004;2023-04-29T00:42:58;6.47;;;5.73;;
14247;SDS011;7208;49.826;6.004;2023-04-29T00:45:24;6.33;;;5.77;;
14247;SDS011;7208;49.826;6.004;2023-04-29T00:47:51;6.10;;;5.53;;
14247;SDS011;7208;49.826;6.004;2023-04-29T00:50:24;5.63;;;4.80;;
14247;SDS011;7208;49.826;6.004;2023-04-29T00:52:50;6.80;;;5.80;;
14247;SDS011;7208;49.826;6.004;2023-04-29T00:55:16;6.47;;;5.70;;
14247;SDS011;7208;49.826;6.004;2023-04-29T00:57:42;6.73;;;5.90;;
14247;SDS011;7208;49.826;6.004;2023-04-29T01:00:08;6.00;;;5.17;;
14247;SDS011;7208;49.826;6.004;2023-04-29T01:02:35;5.60;;;5.10;;
14247;SDS011;7208;49.826;6.004;2023-04-29T01:05:01;5.57;;;5.07;;
14247;SDS011;7208;49.826;6.004;2023-04-29T01:10:11;6.70;;;5.03;;
14247;SDS011;7208;49.826;6.004;2023-04-29T01:12:48;7.00;;;4.73;;
14247;SDS011;7208;49.826;6.004;2023-04-29T01:17:44;6.00;;;5.13;;
14247;SDS011;7208;49.826;6.004;2023-04-29T01:20:12;7.53;;;5.00;;
14247;SDS011;7208;49.826;6.004;2023-04-29T01:22:39;6.37;;;4.50;;
14247;SDS011;7208;49.826;6.004;2023-04-29T01:25:06;7.30;;;5.70;;
14247;SDS011;7208;49.826;6.004;2023-04-29T01:38:29;6.80;;;5.63;;
14247;SDS011;7208;49.826;6.004;2023-04-29T01:41:09;6.80;;;6.10;;
14247;SDS011;7208;49.826;6.004;2023-04-29T01:43:36;6.60;;;5.90;;
14247;SDS011;7208;49.826;6.004;2023-04-29T01:46:03;6.87;;;6.10;;
14247;SDS011;7208;49.826;6.004;2023-04-29T01:48:30;6.50;;;5.87;;
14247;SDS011;7208;49.826;6.004;2023-04-29T01:50:56;7.53;;;6.20;;
14247;SDS011;7208;49.826;6.004;2023-04-29T01:53:22;7.27;;;5.80;;
14247;SDS011;7208;49.826;6.004;2023-04-29T01:55:48;6.33;;;5.53;;
14247;SDS011;7208;49.826;6.004;2023-04-29T01:58:14;7.10;;;5.30;;
14247;SDS011;7208;49.826;6.004;2023-04-29T02:00:40;5.90;;;5.30;;
14247;SDS011;7208;49.826;6.004;2023-04-29T02:03:06;9.87;;;6.67;;
14247;SDS011;7208;49.826;6.004;2023-04-29T02:05:32;7.67;;;5.90;;
14247;SDS011;7208;49.826;6.004;2023-04-29T02:07:59;7.30;;;5.70;;
14247;SDS011;7208;49.826;6.004;2023-04-29T02:10:26;5.77;;;5.07;;
14247;SDS011;7208;49.826;6.004;2023-04-29T02:12:52;7.17;;;5.87;;
14247;SDS011;7208;49.826;6.004;2023-04-29T02:15:18;7.60;;;6.10;;
14247;SDS011;7208;49.826;6.004;2023-04-29T02:17:45;7.13;;;5.60;;
14247;SDS011;7208;49.826;6.004;2023-04-29T02:20:11;7.83;;;6.10;;
14247;SDS011;7208;49.826;6.004;2023-04-29T02:22:37;7.37;;;6.43;;
14247;SDS011;7208;49.826;6.004;2023-04-29T02:25:03;8.13;;;6.43;;
14247;SDS011;7208;49.826;6.004;2023-04-29T02:27:30;6.43;;;5.83;;
14247;SDS011;7208;49.826;6.004;2023-04-29T02:29:56;7.17;;;6.23;;
14247;SDS011;7208;49.826;6.004;2023-04-29T02:32:22;7.13;;;6.23;;
14247;SDS011;7208;49.826;6.004;2023-04-29T02:34:48;6.83;;;5.57;;
14247;SDS011;7208;49.826;6.004;2023-04-29T02:37:15;6.47;;;5.80;;
14247;SDS011;7208;49.826;6.004;2023-04-29T02:39:41;7.57;;;5.67;;
14247;SDS011;7208;49.826;6.004;2023-04-29T02:42:07;9.97;;;6.37;;
14247;SDS011;7208;49.826;6.004;2023-04-29T02:44:33;8.30;;;6.57;;
14247;SDS011;7208;49.826;6.004;2023-04-29T02:46:59;7.30;;;5.47;;
14247;SDS011;7208;49.826;6.004;2023-04-29T02:49:25;6.93;;;6.23;;
14247;SDS011;7208;49.826;6.004;2023-04-29T02:51:51;6.40;;;5.80;;
14247;SDS011;7208;49.826;6.004;2023-04-29T02:54:18;6.20;;;5.53;;
14247;SDS011;7208;49.826;6.004;2023-04-29T02:56:44;7.03;;;5.97;;
14247;SDS011;7208;49.826;6.004;2023-04-29T02:59:10;7.70;;;6.10;;
14247;SDS011;7208;49.826;6.004;2023-04-29T03:01:36;9.23;;;7.37;;
14247;SDS011;7208;49.826;6.004;2023-04-29T03:04:03;9.07;;;6.30;;
14247;SDS011;7208;49.826;6.004;2023-04-29T03:06:29;10.90;;;7.50;;
14247;SDS011;7208;49.826;6.004;2023-04-29T03:08:55;9.07;;;7.40;;
14247;SDS011;7208;49.826;6.004;2023-04-29T03:11:21;11.37;;;7.27;;
14247;SDS011;7208;49.826;6.004;2023-04-29T03:13:50;11.17;;;8.10;;
14247;SDS011;7208;49.826;6.004;2023-04-29T03:16:16;10.73;;;7.67;;
14247;SDS011;7208;49.826;6.004;2023-04-29T03:18:42;9.50;;;7.40;;
14247;SDS011;7208;49.826;6.004;2023-04-29T03:21:09;9.70;;;7.00;;
14247;SDS011;7208;49.826;6.004;2023-04-29T03:23:35;10.23;;;7.50;;
14247;SDS011;7208;49.826;6.004;2023-04-29T03:26:03;8.07;;;7.10;;
14247;SDS011;7208;49.826;6.004;2023-04-29T03:28:29;8.47;;;6.87;;
14247;SDS011;7208;49.826;6.004;2023-04-29T03:30:55;7.37;;;6.60;;
14247;SDS011;7208;49.826;6.004;2023-04-29T03:33:22;9.20;;;6.50;;
14247;SDS011;7208;49.826;6.004;2023-04-29T03:35:48;7.60;;;6.33;;
14247;SDS011;7208;49.826;6.004;2023-04-29T03:38:14;8.20;;;6.33;;
14247;SDS011;7208;49.826;6.004;2023-04-29T03:40:40;9.23;;;7.17;;
14247;SDS011;7208;49.826;6.004;2023-04-29T03:43:06;8.33;;;6.80;;
14247;SDS011;7208;49.826;6.004;2023-04-29T03:45:33;7.87;;;6.50;;
14247;SDS011;7208;49.826;6.004;2023-04-29T03:47:59;9.70;;;7.30;;
14247;SDS011;7208;49.826;6.004;2023-04-29T03:50:26;8.47;;;6.60;;
14247;SDS011;7208;49.826;6.004;2023-04-29T03:52:52;7.07;;;5.93;;
14247;SDS011;7208;49.826;6.004;2023-04-29T03:55:18;9.97;;;7.53;;
14247;SDS011;7208;49.826;6.004;2023-04-29T03:57:45;10.67;;;8.03;;
14247;SDS011;7208;49.826;6.004;2023-04-29T04:00:11;10.43;;;7.63;;
14247;SDS011;7208;49.826;6.004;2023-04-29T04:02:37;9.57;;;7.80;;
14247;SDS011;7208;49.826;6.004;2023-04-29T04:05:03;8.40;;;7.30;;
14247;SDS011;7208;49.826;6.004;2023-04-29T04:07:29;9.37;;;7.93;;
14247;SDS011;7208;49.826;6.004;2023-04-29T04:09:55;10.00;;;7.10;;
14247;SDS011;7208;49.826;6.004;2023-04-29T04:12:21;9.00;;;7.07;;
14247;SDS011;7208;49.826;6.004;2023-04-29T04:14:47;11.03;;;8.03;;
14247;SDS011;7208;49.826;6.004;2023-04-29T04:17:13;10.13;;;8.33;;
14247;SDS011;7208;49.826;6.004;2023-04-29T04:19:39;12.33;;;8.50;;
14247;SDS011;7208;49.826;6.004;2023-04-29T04:22:05;9.83;;;7.60;;
14247;SDS011;7208;49.826;6.004;2023-04-29T04:24:32;10.60;;;7.40;;
14247;SDS011;7208;49.826;6.004;2023-04-29T04:27:02;10.87;;;8.80;;
14247;SDS011;7208;49.826;6.004;2023-04-29T04:29:28;12.30;;;8.20;;
14247;SDS011;7208;49.826;6.004;2023-04-29T04:31:54;13.30;;;9.47;;
14247;SDS011;7208;49.826;6.004;2023-04-29T04:34:20;9.90;;;8.60;;
14247;SDS011;7208;49.826;6.004;2023-04-29T04:36:46;10.87;;;8.40;;
14247;SDS011;7208;49.826;6.004;2023-04-29T04:39:12;13.40;;;9.77;;
14247;SDS011;7208;49.826;6.004;2023-04-29T04:41:38;10.73;;;8.73;;
14247;SDS011;7208;49.826;6.004;2023-04-29T04:44:04;11.53;;;9.67;;
14247;SDS011;7208;49.826;6.004;2023-04-29T04:46:30;13.67;;;10.03;;
14247;SDS011;7208;49.826;6.004;2023-04-29T04:48:56;10.67;;;8.70;;
14247;SDS011;7208;49.826;6.004;2023-04-29T04:51:22;13.10;;;9.43;;
14247;SDS011;7208;49.826;6.004;2023-04-29T04:53:48;12.43;;;9.70;;
14247;SDS011;7208;49.826;6.004;2023-04-29T04:56:14;12.33;;;9.53;;
14247;SDS011;7208;49.826;6.004;2023-04-29T04:58:40;13.30;;;10.17;;
14247;SDS011;7208;49.826;6.004;2023-04-29T05:01:06;14.17;;;9.77;;
14247;SDS011;7208;49.826;6.004;2023-04-29T05:03:32;13.67;;;9.73;;
14247;SDS011;7208;49.826;6.004;2023-04-29T05:05:59;14.77;;;10.43;;
14247;SDS011;7208;49.826;6.004;2023-04-29T05:08:25;17.00;;;10.60;;
14247;SDS011;7208;49.826;6.004;2023-04-29T05:10:51;14.93;;;9.63;;
14247;SDS011;7208;49.826;6.004;2023-04-29T05:13:17;14.67;;;9.80;;
14247;SDS011;7208;49.826;6.004;2023-04-29T05:15:44;17.33;;;11.00;;
14247;SDS011;7208;49.826;6.004;2023-04-29T05:18:10;19.00;;;11.43;;
14247;SDS011;7208;49.826;6.004;2023-04-29T05:20:36;15.93;;;11.63;;
14247;SDS011;7208;49.826;6.004;2023-04-29T05:23:02;17.37;;;10.80;;
14247;SDS011;7208;49.826;6.004;2023-04-29T05:25:28;18.83;;;11.63;;
14247;SDS011;7208;49.826;6.004;2023-04-29T05:27:54;17.07;;;10.97;;
14247;SDS011;7208;49.826;6.004;2023-04-29T05:30:20;13.87;;;9.80;;
14247;SDS011;7208;49.826;6.004;2023-04-29T05:32:47;13.67;;;9.83;;
14247;SDS011;7208;49.826;6.004;2023-04-29T05:35:13;19.30;;;10.17;;
14247;SDS011;7208;49.826;6.004;2023-04-29T05:37:39;15.43;;;9.57;;
14247;SDS011;7208;49.826;6.004;2023-04-29T05:40:06;18.50;;;10.77;;
14247;SDS011;7208;49.826;6.004;2023-04-29T05:42:32;19.53;;;11.77;;
14247;SDS011;7208;49.826;6.004;2023-04-29T05:44:58;17.30;;;9.70;;
14247;SDS011;7208;49.826;6.004;2023-04-29T05:47:24;14.93;;;9.20;;
14247;SDS011;7208;49.826;6.004;2023-04-29T05:49:50;17.23;;;10.20;;
14247;SDS011;7208;49.826;6.004;2023-04-29T05:52:16;16.70;;;10.37;;
14247;SDS011;7208;49.826;6.004;2023-04-29T05:54:42;15.07;;;9.80;;
14247;SDS011;7208;49.826;6.004;2023-04-29T05:57:08;12.37;;;8.93;;
14247;SDS011;7208;49.826;6.004;2023-04-29T05:59:35;12.80;;;9.13;;
14247;SDS011;7208;49.826;6.004;2023-04-29T06:02:01;14.70;;;8.37;;
14247;SDS011;7208;49.826;6.004;2023-04-29T06:04:27;15.77;;;9.23;;
14247;SDS011;7208;49.826;6.004;2023-04-29T06:06:53;15.40;;;9.37;;
14247;SDS011;7208;49.826;6.004;2023-04-29T06:09:34;18.00;;;9.70;;
14247;SDS011;7208;49.826;6.004;2023-04-29T06:12:00;15.30;;;9.13;;
14247;SDS011;7208;49.826;6.004;2023-04-29T06:14:27;17.33;;;8.93;;
14247;SDS011;7208;49.826;6.004;2023-04-29T06:16:53;12.80;;;9.57;;
14247;SDS011;7208;49.826;6.004;2023-04-29T06:19:19;15.87;;;9.17;;
14247;SDS011;7208;49.826;6.004;2023-04-29T06:21:45;14.93;;;10.07;;
14247;SDS011;7208;49.826;6.004;2023-04-29T06:24:11;13.63;;;9.17;;
14247;SDS011;7208;49.826;6.004;2023-04-29T06:26:37;16.73;;;9.37;;
14247;SDS011;7208;49.826;6.004;2023-04-29T06:29:03;12.70;;;9.13;;
14247;SDS011;7208;49.826;6.004;2023-04-29T06:31:29;13.77;;;8.70;;
14247;SDS011;7208;49.826;6.004;2023-04-29T06:33:56;11.47;;;8.27;;
14247;SDS011;7208;49.826;6.004;2023-04-29T06:36:22;12.63;;;8.00;;
14247;SDS011;7208;49.826;6.004;2023-04-29T06:38:48;15.27;;;9.43;;
14247;SDS011;7208;49.826;6.004;2023-04-29T06:41:14;14.63;;;9.10;;
14247;SDS011;7208;49.826;6.004;2023-04-29T06:43:40;12.33;;;8.27;;
14247;SDS011;7208;49.826;6.004;2023-04-29T06:46:07;10.60;;;8.00;;
14247;SDS011;7208;49.826;6.004;2023-04-29T06:48:33;13.07;;;8.87;;
14247;SDS011;7208;49.826;6.004;2023-04-29T06:50:59;10.17;;;7.50;;
14247;SDS011;7208;49.826;6.004;2023-04-29T06:53:25;9.53;;;7.33;;
14247;SDS011;7208;49.826;6.004;2023-04-29T06:55:51;12.60;;;8.53;;
14247;SDS011;7208;49.826;6.004;2023-04-29T06:58:18;11.23;;;7.63;;
14247;SDS011;7208;49.826;6.004;2023-04-29T07:00:45;13.13;;;8.80;;
14247;SDS011;7208;49.826;6.004;2023-04-29T07:03:11;10.93;;;7.70;;
14247;SDS011;7208;49.826;6.004;2023-04-29T07:05:37;11.90;;;7.93;;
14247;SDS011;7208;49.826;6.004;2023-04-29T07:08:05;12.07;;;7.83;;
14247;SDS011;7208;49.826;6.004;2023-04-29T07:10:31;10.13;;;7.83;;
14247;SDS011;7208;49.826;6.004;2023-04-29T07:12:57;12.80;;;7.93;;
14247;SDS011;7208;49.826;6.004;2023-04-29T07:15:24;12.03;;;8.13;;
14247;SDS011;7208;49.826;6.004;2023-04-29T07:17:51;11.60;;;8.90;;
14247;SDS011;7208;49.826;6.004;2023-04-29T07:20:17;12.83;;;9.10;;
14247;SDS011;7208;49.826;6.004;2023-04-29T07:22:43;13.37;;;8.87;;
14247;SDS011;7208;49.826;6.004;2023-04-29T07:25:09;13.57;;;9.07;;
14247;SDS011;7208;49.826;6.004;2023-04-29T07:27:35;13.53;;;8.67;;
14247;SDS011;7208;49.826;6.004;2023-04-29T07:30:02;11.03;;;8.57;;
14247;SDS011;7208;49.826;6.004;2023-04-29T07:32:29;12.57;;;8.33;;
14247;SDS011;7208;49.826;6.004;2023-04-29T07:34:58;11.60;;;8.27;;
14247;SDS011;7208;49.826;6.004;2023-04-29T07:37:24;10.60;;;8.43;;
14247;SDS011;7208;49.826;6.004;2023-04-29T07:39:51;12.23;;;8.67;;
14247;SDS011;7208;49.826;6.004;2023-04-29T07:42:17;13.67;;;8.73;;
14247;SDS011;7208;49.826;6.004;2023-04-29T07:44:43;15.13;;;9.60;;
14247;SDS011;7208;49.826;6.004;2023-04-29T07:47:09;11.27;;;8.60;;
14247;SDS011;7208;49.826;6.004;2023-04-29T07:49:36;12.67;;;8.50;;
14247;SDS011;7208;49.826;6.004;2023-04-29T07:52:05;13.20;;;8.30;;
14247;SDS011;7208;49.826;6.004;2023-04-29T07:54:33;9.50;;;7.00;;
14247;SDS011;7208;49.826;6.004;2023-04-29T07:57:03;8.87;;;7.53;;
14247;SDS011;7208;49.826;6.004;2023-04-29T07:59:29;11.33;;;8.63;;
14247;SDS011;7208;49.826;6.004;2023-04-29T08:01:55;9.77;;;8.27;;
14247;SDS011;7208;49.826;6.004;2023-04-29T08:04:21;12.70;;;8.83;;
14247;SDS011;7208;49.826;6.004;2023-04-29T08:06:48;10.00;;;7.50;;
14247;SDS011;7208;49.826;6.004;2023-04-29T08:09:14;9.50;;;7.80;;
14247;SDS011;7208;49.826;6.004;2023-04-29T08:11:40;12.33;;;7.47;;
14247;SDS011;7208;49.826;6.004;2023-04-29T08:14:06;11.23;;;7.50;;
14247;SDS011;7208;49.826;6.004;2023-04-29T08:16:33;13.30;;;8.50;;
14247;SDS011;7208;49.826;6.004;2023-04-29T08:18:59;9.70;;;8.17;;
14247;SDS011;7208;49.826;6.004;2023-04-29T08:21:34;10.30;;;8.03;;
14247;SDS011;7208;49.826;6.004;2023-04-29T08:24:00;11.57;;;8.00;;
14247;SDS011;7208;49.826;6.004;2023-04-29T08:26:26;10.30;;;8.47;;
14247;SDS011;7208;49.826;6.004;2023-04-29T08:28:52;13.60;;;7.93;;
14247;SDS011;7208;49.826;6.004;2023-04-29T08:31:21;10.07;;;7.63;;
14247;SDS011;7208;49.826;6.004;2023-04-29T08:33:47;12.27;;;7.80;;
14247;SDS011;7208;49.826;6.004;2023-04-29T08:36:13;11.53;;;7.57;;
14247;SDS011;7208;49.826;6.004;2023-04-29T08:38:40;12.17;;;8.30;;
14247;SDS011;7208;49.826;6.004;2023-04-29T08:41:06;10.23;;;7.20;;
14247;SDS011;7208;49.826;6.004;2023-04-29T08:43:34;10.50;;;7.23;;
14247;SDS011;7208;49.826;6.004;2023-04-29T08:46:06;9.73;;;7.10;;
14247;SDS011;7208;49.826;6.004;2023-04-29T08:48:32;9.53;;;7.30;;
14247;SDS011;7208;49.826;6.004;2023-04-29T08:51:00;10.37;;;8.00;;
14247;SDS011;7208;49.826;6.004;2023-04-29T08:53:26;10.23;;;8.13;;
14247;SDS011;7208;49.826;6.004;2023-04-29T08:56:08;11.30;;;7.40;;
14247;SDS011;7208;49.826;6.004;2023-04-29T08:58:37;11.60;;;8.20;;
14247;SDS011;7208;49.826;6.004;2023-04-29T09:01:08;11.97;;;7.60;;
14247;SDS011;7208;49.826;6.004;2023-04-29T09:06:07;9.07;;;7.03;;
14247;SDS011;7208;49.826;6.004;2023-04-29T09:08:40;9.93;;;6.70;;
14247;SDS011;7208;49.826;6.004;2023-04-29T09:11:12;7.93;;;6.20;;
14247;SDS011;7208;49.826;6.004;2023-04-29T09:13:38;8.60;;;6.67;;
14247;SDS011;7208;49.826;6.004;2023-04-29T09:16:09;11.80;;;6.77;;
14247;SDS011;7208;49.826;6.004;2023-04-29T09:18:43;11.43;;;6.53;;
14247;SDS011;7208;49.826;6.004;2023-04-29T09:21:26;8.43;;;5.67;;
14247;SDS011;7208;49.826;6.004;2023-04-29T09:23:59;9.97;;;5.30;;
14247;SDS011;7208;49.826;6.004;2023-04-29T09:26:25;9.70;;;5.37;;
14247;SDS011;7208;49.826;6.004;2023-04-29T09:31:40;7.60;;;5.93;;
14247;SDS011;7208;49.826;6.004;2023-04-29T09:34:06;6.60;;;5.30;;
14247;SDS011;7208;49.826;6.004;2023-04-29T09:36:54;6.83;;;5.37;;
14247;SDS011;7208;49.826;6.004;2023-04-29T09:39:22;6.80;;;4.80;;
14247;SDS011;7208;49.826;6.004;2023-04-29T09:44:22;5.43;;;4.33;;
14247;SDS011;7208;49.826;6.004;2023-04-29T09:47:01;5.77;;;4.60;;
14247;SDS011;7208;49.826;6.004;2023-04-29T09:49:34;5.23;;;4.10;;
14247;SDS011;7208;49.826;6.004;2023-04-29T09:52:03;5.60;;;4.70;;
14247;SDS011;7208;49.826;6.004;2023-04-29T09:54:30;5.30;;;4.77;;
14247;SDS011;7208;49.826;6.004;2023-04-29T09:56:57;6.13;;;5.20;;
14247;SDS011;7208;49.826;6.004;2023-04-29T09:59:23;6.43;;;5.67;;
14247;SDS011;7208;49.826;6.004;2023-04-29T10:01:54;6.43;;;5.43;;
14247;SDS011;7208;49.826;6.004;2023-04-29T10:04:21;5.33;;;4.70;;
14247;SDS011;7208;49.826;6.004;2023-04-29T10:06:49;6.40;;;4.90;;
14247;SDS011;7208;49.826;6.004;2023-04-29T10:09:15;6.27;;;4.90;;
14247;SDS011;7208;49.826;6.004;2023-04-29T10:11:54;5.80;;;5.20;;
14247;SDS011;7208;49.826;6.004;2023-04-29T10:14:22;4.90;;;4.50;;
14247;SDS011;7208;49.826;6.004;2023-04-29T10:19:18;6.43;;;5.13;;
14247;SDS011;7208;49.826;6.004;2023-04-29T10:21:47;6.43;;;5.27;;
14247;SDS011;7208;49.826;6.004;2023-04-29T10:24:14;5.90;;;5.30;;
14247;SDS011;7208;49.826;6.004;2023-04-29T10:26:42;6.53;;;4.90;;
14247;SDS011;7208;49.826;6.004;2023-04-29T10:29:10;5.97;;;5.37;;
14247;SDS011;7208;49.826;6.004;2023-04-29T10:31:36;5.23;;;4.73;;
14247;SDS011;7208;49.826;6.004;2023-04-29T10:34:03;6.53;;;5.03;;
14247;SDS011;7208;49.826;6.004;2023-04-29T10:36:29;4.80;;;4.30;;
14247;SDS011;7208;49.826;6.004;2023-04-29T10:38:57;4.83;;;4.27;;
14247;SDS011;7208;49.826;6.004;2023-04-29T10:41:25;7.50;;;5.17;;
14247;SDS011;7208;49.826;6.004;2023-04-29T10:43:52;5.30;;;4.73;;
14247;SDS011;7208;49.826;6.004;2023-04-29T10:46:19;7.50;;;5.87;;
14247;SDS011;7208;49.826;6.004;2023-04-29T10:48:54;6.20;;;5.60;;
14247;SDS011;7208;49.826;6.004;2023-04-29T10:51:34;5.00;;;4.50;;
14247;SDS011;7208;49.826;6.004;2023-04-29T10:56:48;5.17;;;4.63;;
14247;SDS011;7208;49.826;6.004;2023-04-29T10:59:15;4.43;;;4.03;;
14247;SDS011;7208;49.826;6.004;2023-04-29T11:01:46;4.57;;;4.17;;
14247;SDS011;7208;49.826;6.004;2023-04-29T11:04:12;4.13;;;3.77;;
14247;SDS011;7208;49.826;6.004;2023-04-29T11:06:40;5.20;;;4.70;;
14247;SDS011;7208;49.826;6.004;2023-04-29T11:09:10;4.53;;;4.13;;
14247;SDS011;7208;49.826;6.004;2023-04-29T11:11:41;3.97;;;3.57;;
14247;SDS011;7208;49.826;6.004;2023-04-29T11:14:08;4.30;;;3.90;;
14247;SDS011;7208;49.826;6.004;2023-04-29T11:16:36;3.30;;;3.00;;
14247;SDS011;7208;49.826;6.004;2023-04-29T11:19:02;4.97;;;3.50;;
14247;SDS011;7208;49.826;6.004;2023-04-29T11:21:29;3.53;;;3.23;;
14247;SDS011;7208;49.826;6.004;2023-04-29T11:23:56;4.23;;;3.87;;
14247;SDS011;7208;49.826;6.004;2023-04-29T11:26:25;4.23;;;3.83;;
14247;SDS011;7208;49.826;6.004;2023-04-29T11:28:51;4.13;;;3.73;;
14247;SDS011;7208;49.826;6.004;2023-04-29T11:31:18;5.40;;;4.90;;
14247;SDS011;7208;49.826;6.004;2023-04-29T11:33:53;5.20;;;4.50;;
14247;SDS011;7208;49.826;6.004;2023-04-29T11:36:19;5.30;;;4.80;;
14247;SDS011;7208;49.826;6.004;2023-04-29T11:38:45;5.20;;;4.70;;
14247;SDS011;7208;49.826;6.004;2023-04-29T11:41:11;6.23;;;4.80;;
14247;SDS011;7208;49.826;6.004;2023-04-29T11:43:44;6.30;;;4.80;;
14247;SDS011;7208;49.826;6.004;2023-04-29T11:46:14;5.30;;;4.33;;
14247;SDS011;7208;49.826;6.004;2023-04-29T11:48:47;4.80;;;4.27;;
14247;SDS011;7208;49.826;6.004;2023-04-29T11:51:14;4.43;;;3.83;;
14247;SDS011;7208;49.826;6.004;2023-04-29T11:53:43;4.63;;;4.03;;
14247;SDS011;7208;49.826;6.004;2023-04-29T11:56:10;5.20;;;4.17;;
14247;SDS011;7208;49.826;6.004;2023-04-29T11:58:36;4.60;;;3.83;;
14247;SDS011;7208;49.826;6.004;2023-04-29T12:01:03;4.40;;;4.00;;
14247;SDS011;7208;49.826;6.004;2023-04-29T12:03:30;4.13;;;3.83;;
14247;SDS011;7208;49.826;6.004;2023-04-29T12:05:56;4.07;;;3.73;;
14247;SDS011;7208;49.826;6.004;2023-04-29T12:08:23;5.03;;;3.87;;
14247;SDS011;7208;49.826;6.004;2023-04-29T12:10:49;4.63;;;3.90;;
14247;SDS011;7208;49.826;6.004;2023-04-29T12:13:16;5.13;;;3.67;;
14247;SDS011;7208;49.826;6.004;2023-04-29T12:15:43;4.00;;;3.47;;
14247;SDS011;7208;49.826;6.004;2023-04-29T12:18:10;5.40;;;3.77;;
14247;SDS011;7208;49.826;6.004;2023-04-29T12:20:36;3.63;;;3.37;;
14247;SDS011;7208;49.826;6.004;2023-04-29T12:23:22;3.53;;;3.23;;
14247;SDS011;7208;49.826;6.004;2023-04-29T12:25:49;5.33;;;2.70;;
14247;SDS011;7208;49.826;6.004;2023-04-29T12:28:16;3.47;;;2.83;;
14247;SDS011;7208;49.826;6.004;2023-04-29T12:30:43;4.80;;;2.73;;
14247;SDS011;7208;49.826;6.004;2023-04-29T12:33:09;3.60;;;3.30;;
14247;SDS011;7208;49.826;6.004;2023-04-29T12:35:35;2.70;;;2.50;;
14247;SDS011;7208;49.826;6.004;2023-04-29T12:38:01;3.53;;;2.90;;
14247;SDS011;7208;49.826;6.004;2023-04-29T12:40:27;2.63;;;2.43;;
14247;SDS011;7208;49.826;6.004;2023-04-29T12:42:54;3.67;;;3.00;;
14247;SDS011;7208;49.826;6.004;2023-04-29T12:47:52;4.47;;;3.43;;
14247;SDS011;7208;49.826;6.004;2023-04-29T12:50:20;3.20;;;2.90;;
14247;SDS011;7208;49.826;6.004;2023-04-29T12:52:52;2.70;;;2.50;;
14247;SDS011;7208;49.826;6.004;2023-04-29T12:55:18;3.43;;;2.03;;
14247;SDS011;7208;49.826;6.004;2023-04-29T12:57:44;2.40;;;2.20;;
14247;SDS011;7208;49.826;6.004;2023-04-29T13:00:10;2.20;;;2.00;;
14247;SDS011;7208;49.826;6.004;2023-04-29T13:02:36;2.37;;;2.17;;
14247;SDS011;7208;49.826;6.004;2023-04-29T13:05:03;2.40;;;2.20;;
14247;SDS011;7208;49.826;6.004;2023-04-29T13:07:29;3.17;;;2.93;;
14247;SDS011;7208;49.826;6.004;2023-04-29T13:09:55;3.60;;;3.30;;
14247;SDS011;7208;49.826;6.004;2023-04-29T13:12:21;3.17;;;2.87;;
14247;SDS011;7208;49.826;6.004;2023-04-29T13:14:47;3.30;;;3.00;;
14247;SDS011;7208;49.826;6.004;2023-04-29T13:17:13;3.17;;;2.87;;
14247;SDS011;7208;49.826;6.004;2023-04-29T13:19:39;2.70;;;2.27;;
14247;SDS011;7208;49.826;6.004;2023-04-29T13:22:05;3.43;;;2.40;;
14247;SDS011;7208;49.826;6.004;2023-04-29T13:24:31;2.67;;;2.47;;
14247;SDS011;7208;49.826;6.004;2023-04-29T13:26:59;2.70;;;2.50;;
14247;SDS011;7208;49.826;6.004;2023-04-29T13:29:27;2.67;;;2.47;;
14247;SDS011;7208;49.826;6.004;2023-04-29T13:31:53;2.47;;;2.27;;
14247;SDS011;7208;49.826;6.004;2023-04-29T13:34:18;2.27;;;2.07;;
14247;SDS011;7208;49.826;6.004;2023-04-29T13:36:45;3.17;;;2.30;;
14247;SDS011;7208;49.826;6.004;2023-04-29T13:39:11;3.30;;;3.00;;
14247;SDS011;7208;49.826;6.004;2023-04-29T13:41:37;2.87;;;2.67;;
14247;SDS011;7208;49.826;6.004;2023-04-29T13:44:03;3.03;;;2.73;;
14247;SDS011;7208;49.826;6.004;2023-04-29T13:46:29;3.10;;;2.90;;
14247;SDS011;7208;49.826;6.004;2023-04-29T13:48:56;3.20;;;2.90;;
14247;SDS011;7208;49.826;6.004;2023-04-29T13:51:22;4.07;;;3.77;;
14247;SDS011;7208;49.826;6.004;2023-04-29T13:53:48;4.07;;;3.67;;
14247;SDS011;7208;49.826;6.004;2023-04-29T13:56:14;3.47;;;3.17;;
14247;SDS011;7208;49.826;6.004;2023-04-29T13:58:41;4.00;;;3.70;;
14247;SDS011;7208;49.826;6.004;2023-04-29T14:01:07;4.63;;;4.13;;
14247;SDS011;7208;49.826;6.004;2023-04-29T14:03:33;4.93;;;3.90;;
14247;SDS011;7208;49.826;6.004;2023-04-29T14:05:59;3.60;;;3.30;;
14247;SDS011;7208;49.826;6.004;2023-04-29T14:08:25;4.40;;;4.00;;
14247;SDS011;7208;49.826;6.004;2023-04-29T14:10:54;3.67;;;3.33;;
14247;SDS011;7208;49.826;6.004;2023-04-29T14:13:21;3.93;;;3.60;;
14247;SDS011;7208;49.826;6.004;2023-04-29T14:15:48;3.57;;;3.27;;
14247;SDS011;7208;49.826;6.004;2023-04-29T14:18:14;3.50;;;3.20;;
14247;SDS011;7208;49.826;6.004;2023-04-29T14:20:39;4.20;;;3.80;;
14247;SDS011;7208;49.826;6.004;2023-04-29T14:23:05;3.30;;;3.00;;
14247;SDS011;7208;49.826;6.004;2023-04-29T14:25:31;4.30;;;3.50;;
14247;SDS011;7208;49.826;6.004;2023-04-29T14:27:57;3.13;;;2.83;;
14247;SDS011;7208;49.826;6.004;2023-04-29T14:30:23;3.30;;;3.00;;
14247;SDS011;7208;49.826;6.004;2023-04-29T14:32:49;3.30;;;3.00;;
14247;SDS011;7208;49.826;6.004;2023-04-29T14:35:15;3.47;;;3.17;;
14247;SDS011;7208;49.826;6.004;2023-04-29T14:37:41;3.17;;;2.87;;
14247;SDS011;7208;49.826;6.004;2023-04-29T14:40:08;2.80;;;2.57;;
14247;SDS011;7208;49.826;6.004;2023-04-29T14:42:34;2.87;;;2.60;;
14247;SDS011;7208;49.826;6.004;2023-04-29T14:45:00;2.60;;;2.40;;
14247;SDS011;7208;49.826;6.004;2023-04-29T14:47:26;3.07;;;2.50;;
14247;SDS011;7208;49.826;6.004;2023-04-29T14:49:52;2.63;;;2.43;;
14247;SDS011;7208;49.826;6.004;2023-04-29T14:52:18;1.83;;;1.70;;
14247;SDS011;7208;49.826;6.004;2023-04-29T14:54:44;2.10;;;1.90;;
14247;SDS011;7208;49.826;6.004;2023-04-29T14:57:10;2.67;;;2.17;;
14247;SDS011;7208;49.826;6.004;2023-04-29T14:59:36;2.20;;;2.00;;
14247;SDS011;7208;49.826;6.004;2023-04-29T15:02:02;3.10;;;2.40;;
14247;SDS011;7208;49.826;6.004;2023-04-29T15:04:29;2.93;;;2.73;;
14247;SDS011;7208;49.826;6.004;2023-04-29T15:06:55;2.80;;;2.60;;
14247;SDS011;7208;49.826;6.004;2023-04-29T15:09:22;3.30;;;3.00;;
14247;SDS011;7208;49.826;6.004;2023-04-29T15:11:48;3.20;;;2.90;;
14247;SDS011;7208;49.826;6.004;2023-04-29T15:14:14;2.73;;;2.50;;
14247;SDS011;7208;49.826;6.004;2023-04-29T15:16:40;3.23;;;2.90;;
14247;SDS011;7208;49.826;6.004;2023-04-29T15:19:06;3.13;;;2.83;;
14247;SDS011;7208;49.826;6.004;2023-04-29T15:21:32;2.93;;;2.63;;
14247;SDS011;7208;49.826;6.004;2023-04-29T15:23:59;3.57;;;3.07;;
14247;SDS011;7208;49.826;6.004;2023-04-29T15:26:26;3.90;;;2.90;;